sensor_id;sensor_type;location;lat;lon;timestamp;P1;durP1;ratioP1;P2;durP2;ratioP2
25846;SDS011;13676;50.168;8.568;2022-09-12T00:02:03;8.95;;;5.90;;
25846;SDS011;13676;50.168;8.568;2022-09-12T00:04:28;6.72;;;6.05;;
25846;SDS011;13676;50.168;8.568;2022-09-12T00:06:54;6.70;;;5.85;;
25846;SDS011;13676;50.168;8.568;2022-09-12T00:09:19;7.38;;;5.28;;
25846;SDS011;13676;50.168;8.568;2022-09-12T00:11:45;5.82;;;4.95;;
25846;SDS011;13676;50.168;8.568;2022-09-12T00:14:12;7.00;;;5.82;;
25846;SDS011;13676;50.168;8.568;2022-09-12T00:16:39;7.20;;;5.57;;
25846;SDS011;13676;50.168;8.568;2022-09-12T00:19:05;6.65;;;6.00;;
25846;SDS011;13676;50.168;8.568;2022-09-12T00:21:31;6.43;;;5.65;;
25846;SDS011;13676;50.168;8.568;2022-09-12T00:23:58;6.28;;;5.07;;
25846;SDS011;13676;50.168;8.568;2022-09-12T00:26:23;6.85;;;5.57;;
25846;SDS011;13676;50.168;8.568;2022-09-12T00:28:49;5.60;;;5.05;;
25846;SDS011;13676;50.168;8.568;2022-09-12T00:31:16;5.78;;;5.10;;
25846;SDS011;13676;50.168;8.568;2022-09-12T00:33:43;6.18;;;5.38;;
25846;SDS011;13676;50.168;8.568;2022-09-12T00:36:13;5.57;;;5.00;;
25846;SDS011;13676;50.168;8.568;2022-09-12T00:38:43;8.57;;;6.07;;
25846;SDS011;13676;50.168;8.568;2022-09-12T00:41:14;6.32;;;5.32;;
25846;SDS011;13676;50.168;8.568;2022-09-12T00:43:41;6.80;;;5.35;;
25846;SDS011;13676;50.168;8.568;2022-09-12T00:49:14;6.00;;;5.07;;
25846;SDS011;13676;50.168;8.568;2022-09-12T00:52:02;10.60;;;6.18;;
25846;SDS011;13676;50.168;8.568;2022-09-12T00:54:31;5.32;;;4.82;;
25846;SDS011;13676;50.168;8.568;2022-09-12T00:57:00;6.13;;;5.40;;
25846;SDS011;13676;50.168;8.568;2022-09-12T01:01:54;5.95;;;5.32;;
25846;SDS011;13676;50.168;8.568;2022-09-12T01:04:21;9.18;;;5.78;;
25846;SDS011;13676;50.168;8.568;2022-09-12T01:09:18;10.48;;;5.68;;
25846;SDS011;13676;50.168;8.568;2022-09-12T01:11:44;9.02;;;6.10;;
25846;SDS011;13676;50.168;8.568;2022-09-12T01:14:11;8.48;;;6.07;;
25846;SDS011;13676;50.168;8.568;2022-09-12T01:16:37;7.03;;;5.80;;
25846;SDS011;13676;50.168;8.568;2022-09-12T01:50:38;6.32;;;5.10;;
25846;SDS011;13676;50.168;8.568;2022-09-12T01:53:14;8.18;;;6.18;;
25846;SDS011;13676;50.168;8.568;2022-09-12T01:58:37;6.28;;;5.68;;
25846;SDS011;13676;50.168;8.568;2022-09-12T02:03:42;6.18;;;5.22;;
25846;SDS011;13676;50.168;8.568;2022-09-12T02:06:15;7.20;;;5.68;;
25846;SDS011;13676;50.168;8.568;2022-09-12T02:08:45;6.18;;;5.47;;
25846;SDS011;13676;50.168;8.568;2022-09-12T02:11:13;6.32;;;5.53;;
25846;SDS011;13676;50.168;8.568;2022-09-12T02:13:40;7.30;;;5.68;;
25846;SDS011;13676;50.168;8.568;2022-09-12T02:16:12;6.03;;;5.43;;
25846;SDS011;13676;50.168;8.568;2022-09-12T02:18:44;7.18;;;5.03;;
25846;SDS011;13676;50.168;8.568;2022-09-12T02:21:11;7.65;;;5.88;;
25846;SDS011;13676;50.168;8.568;2022-09-12T02:23:38;6.90;;;6.00;;
25846;SDS011;13676;50.168;8.568;2022-09-12T02:26:07;6.72;;;5.53;;
25846;SDS011;13676;50.168;8.568;2022-09-12T02:28:37;6.07;;;5.47;;
25846;SDS011;13676;50.168;8.568;2022-09-12T02:34:03;8.82;;;5.93;;
25846;SDS011;13676;50.168;8.568;2022-09-12T02:39:18;6.00;;;5.40;;
25846;SDS011;13676;50.168;8.568;2022-09-12T02:41:46;10.88;;;6.65;;
25846;SDS011;13676;50.168;8.568;2022-09-12T02:44:12;10.05;;;5.25;;
25846;SDS011;13676;50.168;8.568;2022-09-12T02:46:39;6.85;;;5.65;;
25846;SDS011;13676;50.168;8.568;2022-09-12T02:49:06;7.32;;;6.45;;
25846;SDS011;13676;50.168;8.568;2022-09-12T02:51:32;7.68;;;6.22;;
25846;SDS011;13676;50.168;8.568;2022-09-12T02:53:57;6.15;;;5.55;;
25846;SDS011;13676;50.168;8.568;2022-09-12T02:56:26;8.02;;;6.50;;
25846;SDS011;13676;50.168;8.568;2022-09-12T02:58:53;7.35;;;6.00;;
25846;SDS011;13676;50.168;8.568;2022-09-12T03:06:34;6.85;;;5.57;;
25846;SDS011;13676;50.168;8.568;2022-09-12T03:16:45;6.45;;;5.80;;
25846;SDS011;13676;50.168;8.568;2022-09-12T03:24:57;7.22;;;5.63;;
25846;SDS011;13676;50.168;8.568;2022-09-12T03:27:35;6.35;;;5.68;;
25846;SDS011;13676;50.168;8.568;2022-09-12T03:30:04;6.57;;;5.97;;
25846;SDS011;13676;50.168;8.568;2022-09-12T03:32:43;6.72;;;6.03;;
25846;SDS011;13676;50.168;8.568;2022-09-12T03:35:09;6.55;;;5.88;;
25846;SDS011;13676;50.168;8.568;2022-09-12T03:37:35;6.78;;;5.63;;
25846;SDS011;13676;50.168;8.568;2022-09-12T03:40:01;7.88;;;5.93;;
25846;SDS011;13676;50.168;8.568;2022-09-12T03:42:28;7.43;;;6.45;;
25846;SDS011;13676;50.168;8.568;2022-09-12T03:44:53;7.25;;;5.88;;
25846;SDS011;13676;50.168;8.568;2022-09-12T03:47:18;6.63;;;5.93;;
25846;SDS011;13676;50.168;8.568;2022-09-12T03:49:44;8.23;;;5.95;;
25846;SDS011;13676;50.168;8.568;2022-09-12T03:52:10;6.68;;;6.03;;
25846;SDS011;13676;50.168;8.568;2022-09-12T03:54:36;7.57;;;6.00;;
25846;SDS011;13676;50.168;8.568;2022-09-12T03:57:01;8.93;;;6.43;;
25846;SDS011;13676;50.168;8.568;2022-09-12T03:59:26;7.22;;;5.88;;
25846;SDS011;13676;50.168;8.568;2022-09-12T04:01:52;5.93;;;5.32;;
25846;SDS011;13676;50.168;8.568;2022-09-12T04:04:17;5.88;;;5.18;;
25846;SDS011;13676;50.168;8.568;2022-09-12T04:06:42;8.13;;;6.32;;
25846;SDS011;13676;50.168;8.568;2022-09-12T04:09:08;6.93;;;6.22;;
25846;SDS011;13676;50.168;8.568;2022-09-12T04:11:33;6.40;;;5.78;;
25846;SDS011;13676;50.168;8.568;2022-09-12T04:13:59;7.05;;;6.15;;
25846;SDS011;13676;50.168;8.568;2022-09-12T04:16:25;6.47;;;5.75;;
25846;SDS011;13676;50.168;8.568;2022-09-12T04:18:50;6.68;;;5.95;;
25846;SDS011;13676;50.168;8.568;2022-09-12T04:21:17;5.78;;;5.20;;
25846;SDS011;13676;50.168;8.568;2022-09-12T04:23:43;7.88;;;5.68;;
25846;SDS011;13676;50.168;8.568;2022-09-12T04:26:09;6.60;;;5.90;;
25846;SDS011;13676;50.168;8.568;2022-09-12T04:28:35;7.10;;;6.40;;
25846;SDS011;13676;50.168;8.568;2022-09-12T04:31:06;9.48;;;7.20;;
25846;SDS011;13676;50.168;8.568;2022-09-12T04:33:39;8.65;;;6.95;;
25846;SDS011;13676;50.168;8.568;2022-09-12T04:36:06;8.15;;;6.45;;
25846;SDS011;13676;50.168;8.568;2022-09-12T04:40:58;8.13;;;6.38;;
25846;SDS011;13676;50.168;8.568;2022-09-12T04:43:24;8.73;;;6.93;;
25846;SDS011;13676;50.168;8.568;2022-09-12T04:45:50;7.93;;;6.72;;
25846;SDS011;13676;50.168;8.568;2022-09-12T04:48:15;6.95;;;5.97;;
25846;SDS011;13676;50.168;8.568;2022-09-12T04:50:41;6.40;;;5.55;;
25846;SDS011;13676;50.168;8.568;2022-09-12T04:53:06;7.05;;;5.35;;
25846;SDS011;13676;50.168;8.568;2022-09-12T04:55:33;7.05;;;6.35;;
25846;SDS011;13676;50.168;8.568;2022-09-12T04:57:59;8.27;;;6.40;;
25846;SDS011;13676;50.168;8.568;2022-09-12T05:00:25;7.20;;;5.63;;
25846;SDS011;13676;50.168;8.568;2022-09-12T05:02:50;6.68;;;6.03;;
25846;SDS011;13676;50.168;8.568;2022-09-12T05:05:16;7.03;;;5.82;;
25846;SDS011;13676;50.168;8.568;2022-09-12T05:07:41;8.55;;;6.63;;
25846;SDS011;13676;50.168;8.568;2022-09-12T05:10:07;6.75;;;5.40;;
25846;SDS011;13676;50.168;8.568;2022-09-12T05:12:32;6.40;;;5.70;;
25846;SDS011;13676;50.168;8.568;2022-09-12T05:14:58;8.27;;;7.47;;
25846;SDS011;13676;50.168;8.568;2022-09-12T05:17:23;8.23;;;6.93;;
25846;SDS011;13676;50.168;8.568;2022-09-12T05:19:48;6.85;;;5.65;;
25846;SDS011;13676;50.168;8.568;2022-09-12T05:22:14;6.72;;;5.65;;
25846;SDS011;13676;50.168;8.568;2022-09-12T05:24:40;6.75;;;5.95;;
25846;SDS011;13676;50.168;8.568;2022-09-12T05:27:07;6.13;;;5.47;;
25846;SDS011;13676;50.168;8.568;2022-09-12T05:29:33;7.40;;;6.32;;
25846;SDS011;13676;50.168;8.568;2022-09-12T05:31:58;6.68;;;5.78;;
25846;SDS011;13676;50.168;8.568;2022-09-12T05:34:24;6.82;;;5.70;;
25846;SDS011;13676;50.168;8.568;2022-09-12T05:36:49;9.85;;;6.85;;
25846;SDS011;13676;50.168;8.568;2022-09-12T05:39:14;9.30;;;6.68;;
25846;SDS011;13676;50.168;8.568;2022-09-12T05:41:40;8.93;;;6.60;;
25846;SDS011;13676;50.168;8.568;2022-09-12T05:44:06;11.07;;;6.65;;
25846;SDS011;13676;50.168;8.568;2022-09-12T05:46:36;9.00;;;6.95;;
25846;SDS011;13676;50.168;8.568;2022-09-12T05:49:05;10.32;;;6.65;;
25846;SDS011;13676;50.168;8.568;2022-09-12T05:51:35;7.07;;;6.30;;
25846;SDS011;13676;50.168;8.568;2022-09-12T05:54:03;6.60;;;5.72;;
25846;SDS011;13676;50.168;8.568;2022-09-12T05:56:31;8.43;;;6.05;;
25846;SDS011;13676;50.168;8.568;2022-09-12T05:58:59;7.18;;;5.93;;
25846;SDS011;13676;50.168;8.568;2022-09-12T06:01:26;6.55;;;5.75;;
25846;SDS011;13676;50.168;8.568;2022-09-12T06:03:53;9.30;;;6.38;;
25846;SDS011;13676;50.168;8.568;2022-09-12T06:06:20;6.38;;;5.65;;
25846;SDS011;13676;50.168;8.568;2022-09-12T06:08:47;10.38;;;7.72;;
25846;SDS011;13676;50.168;8.568;2022-09-12T06:11:17;14.35;;;8.73;;
25846;SDS011;13676;50.168;8.568;2022-09-12T06:13:43;9.98;;;7.68;;
25846;SDS011;13676;50.168;8.568;2022-09-12T06:18:36;8.10;;;6.07;;
25846;SDS011;13676;50.168;8.568;2022-09-12T06:21:06;7.57;;;6.68;;
25846;SDS011;13676;50.168;8.568;2022-09-12T06:23:33;8.23;;;6.38;;
25846;SDS011;13676;50.168;8.568;2022-09-12T06:25:58;8.40;;;6.63;;
25846;SDS011;13676;50.168;8.568;2022-09-12T06:28:24;6.45;;;5.78;;
25846;SDS011;13676;50.168;8.568;2022-09-12T06:30:50;11.75;;;7.47;;
25846;SDS011;13676;50.168;8.568;2022-09-12T06:33:16;11.75;;;8.20;;
25846;SDS011;13676;50.168;8.568;2022-09-12T06:35:41;13.15;;;7.47;;
25846;SDS011;13676;50.168;8.568;2022-09-12T06:38:07;9.90;;;7.93;;
25846;SDS011;13676;50.168;8.568;2022-09-12T06:40:33;12.07;;;8.00;;
25846;SDS011;13676;50.168;8.568;2022-09-12T06:42:59;8.25;;;6.70;;
25846;SDS011;13676;50.168;8.568;2022-09-12T06:45:24;10.88;;;8.48;;
25846;SDS011;13676;50.168;8.568;2022-09-12T06:47:50;16.20;;;8.00;;
25846;SDS011;13676;50.168;8.568;2022-09-12T06:50:15;8.15;;;6.65;;
25846;SDS011;13676;50.168;8.568;2022-09-12T06:52:41;8.55;;;6.30;;
25846;SDS011;13676;50.168;8.568;2022-09-12T06:55:07;7.97;;;6.60;;
25846;SDS011;13676;50.168;8.568;2022-09-12T06:57:32;9.93;;;6.15;;
25846;SDS011;13676;50.168;8.568;2022-09-12T07:02:27;10.02;;;7.40;;
25846;SDS011;13676;50.168;8.568;2022-09-12T07:04:52;6.53;;;5.90;;
25846;SDS011;13676;50.168;8.568;2022-09-12T07:07:18;7.82;;;6.53;;
25846;SDS011;13676;50.168;8.568;2022-09-12T07:09:43;10.68;;;6.88;;
25846;SDS011;13676;50.168;8.568;2022-09-12T07:12:09;6.25;;;5.60;;
25846;SDS011;13676;50.168;8.568;2022-09-12T07:14:34;10.90;;;6.45;;
25846;SDS011;13676;50.168;8.568;2022-09-12T07:16:59;6.05;;;5.43;;
25846;SDS011;13676;50.168;8.568;2022-09-12T07:19:25;5.80;;;5.18;;
25846;SDS011;13676;50.168;8.568;2022-09-12T07:21:50;5.05;;;4.32;;
25846;SDS011;13676;50.168;8.568;2022-09-12T07:24:15;5.72;;;5.10;;
25846;SDS011;13676;50.168;8.568;2022-09-12T07:26:41;5.35;;;4.57;;
25846;SDS011;13676;50.168;8.568;2022-09-12T07:29:06;5.65;;;4.57;;
25846;SDS011;13676;50.168;8.568;2022-09-12T07:31:36;4.43;;;4.03;;
25846;SDS011;13676;50.168;8.568;2022-09-12T07:34:03;5.40;;;4.47;;
25846;SDS011;13676;50.168;8.568;2022-09-12T07:36:30;4.78;;;4.20;;
25846;SDS011;13676;50.168;8.568;2022-09-12T07:38:56;6.72;;;4.28;;
25846;SDS011;13676;50.168;8.568;2022-09-12T07:41:23;5.20;;;4.32;;
25846;SDS011;13676;50.168;8.568;2022-09-12T07:43:51;8.57;;;5.28;;
25846;SDS011;13676;50.168;8.568;2022-09-12T07:46:18;8.52;;;5.63;;
25846;SDS011;13676;50.168;8.568;2022-09-12T07:48:43;9.32;;;5.78;;
25846;SDS011;13676;50.168;8.568;2022-09-12T07:51:10;4.55;;;4.13;;
25846;SDS011;13676;50.168;8.568;2022-09-12T07:53:37;5.97;;;4.50;;
25846;SDS011;13676;50.168;8.568;2022-09-12T07:56:04;4.28;;;3.88;;
25846;SDS011;13676;50.168;8.568;2022-09-12T07:58:31;3.70;;;3.40;;
25846;SDS011;13676;50.168;8.568;2022-09-12T08:01:01;6.20;;;4.88;;
25846;SDS011;13676;50.168;8.568;2022-09-12T08:03:28;8.20;;;6.20;;
25846;SDS011;13676;50.168;8.568;2022-09-12T08:05:53;5.63;;;4.95;;
25846;SDS011;13676;50.168;8.568;2022-09-12T08:08:18;6.05;;;4.20;;
25846;SDS011;13676;50.168;8.568;2022-09-12T08:10:44;8.05;;;6.30;;
25846;SDS011;13676;50.168;8.568;2022-09-12T08:13:09;8.10;;;5.03;;
25846;SDS011;13676;50.168;8.568;2022-09-12T08:15:35;5.60;;;4.55;;
25846;SDS011;13676;50.168;8.568;2022-09-12T08:18:00;4.82;;;4.30;;
25846;SDS011;13676;50.168;8.568;2022-09-12T08:20:26;8.32;;;5.55;;
25846;SDS011;13676;50.168;8.568;2022-09-12T08:22:51;5.80;;;4.63;;
25846;SDS011;13676;50.168;8.568;2022-09-12T08:25:17;5.78;;;5.28;;
25846;SDS011;13676;50.168;8.568;2022-09-12T08:27:43;6.63;;;5.22;;
25846;SDS011;13676;50.168;8.568;2022-09-12T08:30:08;8.77;;;5.57;;
25846;SDS011;13676;50.168;8.568;2022-09-12T08:32:34;4.93;;;4.40;;
25846;SDS011;13676;50.168;8.568;2022-09-12T08:35:00;7.53;;;5.45;;
25846;SDS011;13676;50.168;8.568;2022-09-12T08:37:28;7.35;;;5.50;;
25846;SDS011;13676;50.168;8.568;2022-09-12T08:39:54;5.10;;;4.60;;
25846;SDS011;13676;50.168;8.568;2022-09-12T08:42:28;5.75;;;5.13;;
25846;SDS011;13676;50.168;8.568;2022-09-12T08:45:25;5.60;;;4.75;;
25846;SDS011;13676;50.168;8.568;2022-09-12T08:47:51;6.78;;;5.20;;
25846;SDS011;13676;50.168;8.568;2022-09-12T08:50:17;5.68;;;4.90;;
25846;SDS011;13676;50.168;8.568;2022-09-12T08:55:32;4.60;;;3.90;;
25846;SDS011;13676;50.168;8.568;2022-09-12T09:00:54;8.43;;;6.10;;
25846;SDS011;13676;50.168;8.568;2022-09-12T09:13:59;5.60;;;4.68;;
25846;SDS011;13676;50.168;8.568;2022-09-12T09:16:48;5.22;;;4.40;;
25846;SDS011;13676;50.168;8.568;2022-09-12T09:19:17;6.90;;;5.47;;
25846;SDS011;13676;50.168;8.568;2022-09-12T09:24:25;6.60;;;4.97;;
25846;SDS011;13676;50.168;8.568;2022-09-12T09:26:56;5.82;;;4.57;;
25846;SDS011;13676;50.168;8.568;2022-09-12T09:29:28;5.55;;;4.40;;
25846;SDS011;13676;50.168;8.568;2022-09-12T09:31:58;5.15;;;4.45;;
25846;SDS011;13676;50.168;8.568;2022-09-12T09:34:27;4.22;;;3.83;;
25846;SDS011;13676;50.168;8.568;2022-09-12T09:42:33;6.00;;;4.30;;
25846;SDS011;13676;50.168;8.568;2022-09-12T09:45:02;7.45;;;4.45;;
25846;SDS011;13676;50.168;8.568;2022-09-12T09:47:35;5.43;;;4.53;;
25846;SDS011;13676;50.168;8.568;2022-09-12T09:50:01;6.10;;;4.88;;
25846;SDS011;13676;50.168;8.568;2022-09-12T09:52:28;6.03;;;4.60;;
25846;SDS011;13676;50.168;8.568;2022-09-12T09:54:58;4.97;;;4.25;;
25846;SDS011;13676;50.168;8.568;2022-09-12T10:00:41;4.90;;;4.28;;
25846;SDS011;13676;50.168;8.568;2022-09-12T10:05:34;4.72;;;4.15;;
25846;SDS011;13676;50.168;8.568;2022-09-12T10:08:09;6.55;;;3.95;;
25846;SDS011;13676;50.168;8.568;2022-09-12T10:10:34;5.15;;;4.55;;
25846;SDS011;13676;50.168;8.568;2022-09-12T10:13:06;7.00;;;5.97;;
25846;SDS011;13676;50.168;8.568;2022-09-12T10:15:34;8.15;;;4.75;;
25846;SDS011;13676;50.168;8.568;2022-09-12T10:17:59;5.60;;;4.90;;
25846;SDS011;13676;50.168;8.568;2022-09-12T10:25:44;6.00;;;4.60;;
25846;SDS011;13676;50.168;8.568;2022-09-12T10:28:15;5.45;;;4.13;;
25846;SDS011;13676;50.168;8.568;2022-09-12T10:30:50;5.15;;;3.80;;
25846;SDS011;13676;50.168;8.568;2022-09-12T10:33:16;6.07;;;3.78;;
25846;SDS011;13676;50.168;8.568;2022-09-12T10:35:43;4.95;;;3.65;;
25846;SDS011;13676;50.168;8.568;2022-09-12T10:38:16;5.15;;;4.00;;
25846;SDS011;13676;50.168;8.568;2022-09-12T10:40:53;6.22;;;3.85;;
25846;SDS011;13676;50.168;8.568;2022-09-12T10:48:47;3.97;;;3.58;;
25846;SDS011;13676;50.168;8.568;2022-09-12T10:51:14;5.80;;;4.47;;
25846;SDS011;13676;50.168;8.568;2022-09-12T10:53:54;10.18;;;5.28;;
25846;SDS011;13676;50.168;8.568;2022-09-12T10:56:21;6.00;;;4.35;;
25846;SDS011;13676;50.168;8.568;2022-09-12T11:35:34;5.75;;;4.80;;
25846;SDS011;13676;50.168;8.568;2022-09-12T11:40:48;4.82;;;4.30;;
25846;SDS011;13676;50.168;8.568;2022-09-12T12:02:41;4.80;;;3.90;;
25846;SDS011;13676;50.168;8.568;2022-09-12T12:05:19;4.72;;;3.47;;
25846;SDS011;13676;50.168;8.568;2022-09-12T12:07:50;6.45;;;3.65;;
25846;SDS011;13676;50.168;8.568;2022-09-12T12:10:33;5.05;;;3.00;;
25846;SDS011;13676;50.168;8.568;2022-09-12T12:13:00;4.40;;;3.22;;
25846;SDS011;13676;50.168;8.568;2022-09-12T12:15:29;3.17;;;2.88;;
25846;SDS011;13676;50.168;8.568;2022-09-12T12:20:27;5.03;;;3.83;;
25846;SDS011;13676;50.168;8.568;2022-09-12T12:22:53;6.43;;;3.67;;
25846;SDS011;13676;50.168;8.568;2022-09-12T12:27:46;2.60;;;2.40;;
25846;SDS011;13676;50.168;8.568;2022-09-12T12:37:59;3.83;;;3.25;;
25846;SDS011;13676;50.168;8.568;2022-09-12T12:40:25;3.38;;;3.05;;
25846;SDS011;13676;50.168;8.568;2022-09-12T12:48:10;3.63;;;3.22;;
25846;SDS011;13676;50.168;8.568;2022-09-12T12:50:39;4.32;;;3.00;;
25846;SDS011;13676;50.168;8.568;2022-09-12T12:53:18;3.17;;;2.63;;
25846;SDS011;13676;50.168;8.568;2022-09-12T12:55:46;4.05;;;2.97;;
25846;SDS011;13676;50.168;8.568;2022-09-12T12:58:33;4.03;;;2.90;;
25846;SDS011;13676;50.168;8.568;2022-09-12T13:03:35;4.50;;;2.58;;
25846;SDS011;13676;50.168;8.568;2022-09-12T13:06:03;34.72;;;19.63;;
25846;SDS011;13676;50.168;8.568;2022-09-12T13:08:35;15.75;;;10.35;;
25846;SDS011;13676;50.168;8.568;2022-09-12T13:16:07;3.30;;;2.85;;
25846;SDS011;13676;50.168;8.568;2022-09-12T13:18:44;3.03;;;2.53;;
25846;SDS011;13676;50.168;8.568;2022-09-12T13:23:40;4.07;;;2.60;;
25846;SDS011;13676;50.168;8.568;2022-09-12T13:26:10;4.47;;;2.60;;
25846;SDS011;13676;50.168;8.568;2022-09-12T13:28:46;2.13;;;1.90;;
25846;SDS011;13676;50.168;8.568;2022-09-12T13:33:47;3.85;;;3.42;;
25846;SDS011;13676;50.168;8.568;2022-09-12T13:36:28;2.72;;;2.53;;
25846;SDS011;13676;50.168;8.568;2022-09-12T13:42:01;3.05;;;2.72;;
25846;SDS011;13676;50.168;8.568;2022-09-12T13:44:51;3.58;;;2.33;;
25846;SDS011;13676;50.168;8.568;2022-09-12T13:47:38;4.72;;;2.25;;
25846;SDS011;13676;50.168;8.568;2022-09-12T13:50:13;2.20;;;2.00;;
25846;SDS011;13676;50.168;8.568;2022-09-12T13:52:41;3.33;;;2.75;;
25846;SDS011;13676;50.168;8.568;2022-09-12T13:55:30;2.83;;;2.30;;
25846;SDS011;13676;50.168;8.568;2022-09-12T13:58:18;2.63;;;2.38;;
25846;SDS011;13676;50.168;8.568;2022-09-12T14:00:45;5.65;;;2.35;;
25846;SDS011;13676;50.168;8.568;2022-09-12T14:03:23;4.18;;;2.10;;
25846;SDS011;13676;50.168;8.568;2022-09-12T14:06:09;3.92;;;2.60;;
25846;SDS011;13676;50.168;8.568;2022-09-12T14:08:39;2.35;;;1.92;;
25846;SDS011;13676;50.168;8.568;2022-09-12T14:11:09;2.20;;;2.00;;
25846;SDS011;13676;50.168;8.568;2022-09-12T14:13:35;1.88;;;1.60;;
25846;SDS011;13676;50.168;8.568;2022-09-12T14:16:02;2.53;;;1.48;;
25846;SDS011;13676;50.168;8.568;2022-09-12T14:18:29;2.88;;;2.40;;
25846;SDS011;13676;50.168;8.568;2022-09-12T14:21:00;3.00;;;1.90;;
25846;SDS011;13676;50.168;8.568;2022-09-12T14:23:34;2.92;;;2.33;;
25846;SDS011;13676;50.168;8.568;2022-09-12T14:26:07;2.20;;;1.70;;
25846;SDS011;13676;50.168;8.568;2022-09-12T14:28:35;1.67;;;1.58;;
25846;SDS011;13676;50.168;8.568;2022-09-12T14:31:19;2.10;;;1.90;;
25846;SDS011;13676;50.168;8.568;2022-09-12T14:33:51;2.40;;;2.20;;
25846;SDS011;13676;50.168;8.568;2022-09-12T14:44:36;2.85;;;1.85;;
25846;SDS011;13676;50.168;8.568;2022-09-12T14:47:12;2.30;;;2.10;;
25846;SDS011;13676;50.168;8.568;2022-09-12T14:49:38;2.10;;;1.70;;
25846;SDS011;13676;50.168;8.568;2022-09-12T14:52:04;2.65;;;1.60;;
25846;SDS011;13676;50.168;8.568;2022-09-12T14:57:02;4.15;;;1.88;;
25846;SDS011;13676;50.168;8.568;2022-09-12T15:04:44;2.40;;;1.70;;
25846;SDS011;13676;50.168;8.568;2022-09-12T15:10:12;7.70;;;2.50;;
25846;SDS011;13676;50.168;8.568;2022-09-12T15:12:42;2.45;;;1.63;;
25846;SDS011;13676;50.168;8.568;2022-09-12T15:17:40;3.03;;;2.70;;
25846;SDS011;13676;50.168;8.568;2022-09-12T15:20:06;2.20;;;2.00;;
25846;SDS011;13676;50.168;8.568;2022-09-12T15:22:32;2.67;;;2.13;;
25846;SDS011;13676;50.168;8.568;2022-09-12T15:24:58;2.35;;;2.15;;
25846;SDS011;13676;50.168;8.568;2022-09-12T15:27:23;2.72;;;2.20;;
25846;SDS011;13676;50.168;8.568;2022-09-12T15:29:50;3.10;;;2.53;;
25846;SDS011;13676;50.168;8.568;2022-09-12T15:32:25;3.17;;;2.40;;
25846;SDS011;13676;50.168;8.568;2022-09-12T15:34:52;2.83;;;1.98;;
25846;SDS011;13676;50.168;8.568;2022-09-12T15:37:19;2.47;;;2.15;;
25846;SDS011;13676;50.168;8.568;2022-09-12T15:39:45;2.10;;;1.90;;
25846;SDS011;13676;50.168;8.568;2022-09-12T15:42:11;4.10;;;1.83;;
25846;SDS011;13676;50.168;8.568;2022-09-12T15:44:37;2.20;;;2.00;;
25846;SDS011;13676;50.168;8.568;2022-09-12T15:47:03;2.42;;;1.98;;
25846;SDS011;13676;50.168;8.568;2022-09-12T15:49:29;2.10;;;1.90;;
25846;SDS011;13676;50.168;8.568;2022-09-12T15:51:54;2.53;;;1.90;;
25846;SDS011;13676;50.168;8.568;2022-09-12T15:54:19;2.15;;;1.95;;
25846;SDS011;13676;50.168;8.568;2022-09-12T15:56:45;2.22;;;1.92;;
25846;SDS011;13676;50.168;8.568;2022-09-12T15:59:10;2.50;;;1.90;;
25846;SDS011;13676;50.168;8.568;2022-09-12T16:01:36;2.30;;;2.00;;
25846;SDS011;13676;50.168;8.568;2022-09-12T16:04:02;2.70;;;2.20;;
25846;SDS011;13676;50.168;8.568;2022-09-12T16:06:27;3.25;;;2.30;;
25846;SDS011;13676;50.168;8.568;2022-09-12T16:11:24;3.50;;;2.20;;
25846;SDS011;13676;50.168;8.568;2022-09-12T16:13:54;4.10;;;2.20;;
25846;SDS011;13676;50.168;8.568;2022-09-12T16:16:20;2.50;;;2.30;;
25846;SDS011;13676;50.168;8.568;2022-09-12T16:18:45;3.08;;;2.17;;
25846;SDS011;13676;50.168;8.568;2022-09-12T16:21:10;3.10;;;2.03;;
25846;SDS011;13676;50.168;8.568;2022-09-12T16:23:36;2.22;;;1.90;;
25846;SDS011;13676;50.168;8.568;2022-09-12T16:26:04;2.93;;;1.73;;
25846;SDS011;13676;50.168;8.568;2022-09-12T16:28:30;3.88;;;2.05;;
25846;SDS011;13676;50.168;8.568;2022-09-12T16:31:01;2.75;;;2.10;;
25846;SDS011;13676;50.168;8.568;2022-09-12T16:33:28;2.75;;;2.03;;
25846;SDS011;13676;50.168;8.568;2022-09-12T16:36:27;2.28;;;1.85;;
25846;SDS011;13676;50.168;8.568;2022-09-12T16:38:47;2.10;;;1.90;;
25846;SDS011;13676;50.168;8.568;2022-09-12T16:41:17;2.75;;;1.88;;
25846;SDS011;13676;50.168;8.568;2022-09-12T16:43:43;2.15;;;1.95;;
25846;SDS011;13676;50.168;8.568;2022-09-12T16:46:13;2.03;;;1.83;;
25846;SDS011;13676;50.168;8.568;2022-09-12T16:48:44;2.15;;;1.88;;
25846;SDS011;13676;50.168;8.568;2022-09-12T16:51:11;2.42;;;2.08;;
25846;SDS011;13676;50.168;8.568;2022-09-12T16:53:37;2.05;;;1.85;;
25846;SDS011;13676;50.168;8.568;2022-09-12T16:56:03;4.05;;;1.80;;
25846;SDS011;13676;50.168;8.568;2022-09-12T16:58:33;2.05;;;1.92;;
25846;SDS011;13676;50.168;8.568;2022-09-12T17:01:03;2.50;;;2.30;;
25846;SDS011;13676;50.168;8.568;2022-09-12T17:03:30;2.47;;;2.28;;
25846;SDS011;13676;50.168;8.568;2022-09-12T17:05:56;2.30;;;2.10;;
25846;SDS011;13676;50.168;8.568;2022-09-12T17:08:25;2.42;;;2.13;;
25846;SDS011;13676;50.168;8.568;2022-09-12T17:10:52;2.53;;;2.03;;
25846;SDS011;13676;50.168;8.568;2022-09-12T17:13:17;2.10;;;1.90;;
25846;SDS011;13676;50.168;8.568;2022-09-12T17:15:43;3.63;;;2.60;;
25846;SDS011;13676;50.168;8.568;2022-09-12T17:18:09;6.23;;;3.00;;
25846;SDS011;13676;50.168;8.568;2022-09-12T17:20:35;2.85;;;2.50;;
25846;SDS011;13676;50.168;8.568;2022-09-12T17:23:00;7.78;;;3.10;;
25846;SDS011;13676;50.168;8.568;2022-09-12T17:25:25;3.30;;;2.53;;
25846;SDS011;13676;50.168;8.568;2022-09-12T17:27:51;2.67;;;2.40;;
25846;SDS011;13676;50.168;8.568;2022-09-12T17:30:17;4.03;;;2.42;;
25846;SDS011;13676;50.168;8.568;2022-09-12T17:32:42;3.85;;;2.90;;
25846;SDS011;13676;50.168;8.568;2022-09-12T17:35:08;4.20;;;2.60;;
25846;SDS011;13676;50.168;8.568;2022-09-12T17:37:34;3.00;;;2.70;;
25846;SDS011;13676;50.168;8.568;2022-09-12T17:40:01;6.72;;;3.05;;
25846;SDS011;13676;50.168;8.568;2022-09-12T17:42:27;5.82;;;2.50;;
25846;SDS011;13676;50.168;8.568;2022-09-12T17:44:52;6.03;;;2.83;;
25846;SDS011;13676;50.168;8.568;2022-09-12T17:47:18;6.43;;;3.38;;
25846;SDS011;13676;50.168;8.568;2022-09-12T17:49:44;3.75;;;2.85;;
25846;SDS011;13676;50.168;8.568;2022-09-12T17:52:09;7.70;;;3.00;;
25846;SDS011;13676;50.168;8.568;2022-09-12T17:54:36;5.20;;;2.50;;
25846;SDS011;13676;50.168;8.568;2022-09-12T17:57:02;5.68;;;2.90;;
25846;SDS011;13676;50.168;8.568;2022-09-12T17:59:29;4.77;;;2.77;;
25846;SDS011;13676;50.168;8.568;2022-09-12T18:01:54;5.75;;;3.15;;
25846;SDS011;13676;50.168;8.568;2022-09-12T18:04:38;4.55;;;3.10;;
25846;SDS011;13676;50.168;8.568;2022-09-12T18:07:05;4.80;;;2.90;;
25846;SDS011;13676;50.168;8.568;2022-09-12T18:09:31;2.92;;;2.50;;
25846;SDS011;13676;50.168;8.568;2022-09-12T18:11:56;4.45;;;2.92;;
25846;SDS011;13676;50.168;8.568;2022-09-12T18:14:22;3.00;;;2.70;;
25846;SDS011;13676;50.168;8.568;2022-09-12T18:16:48;4.03;;;2.53;;
25846;SDS011;13676;50.168;8.568;2022-09-12T18:19:14;2.30;;;2.10;;
25846;SDS011;13676;50.168;8.568;2022-09-12T18:21:40;3.88;;;2.47;;
25846;SDS011;13676;50.168;8.568;2022-09-12T18:24:05;2.50;;;2.25;;
25846;SDS011;13676;50.168;8.568;2022-09-12T18:26:31;7.20;;;2.05;;
25846;SDS011;13676;50.168;8.568;2022-09-12T18:28:57;3.17;;;1.90;;
25846;SDS011;13676;50.168;8.568;2022-09-12T18:31:23;13.63;;;2.33;;
25846;SDS011;13676;50.168;8.568;2022-09-12T18:33:51;5.00;;;1.98;;
25846;SDS011;13676;50.168;8.568;2022-09-12T18:36:17;2.45;;;2.17;;
25846;SDS011;13676;50.168;8.568;2022-09-12T18:38:43;2.90;;;2.50;;
25846;SDS011;13676;50.168;8.568;2022-09-12T18:41:16;2.17;;;1.98;;
25846;SDS011;13676;50.168;8.568;2022-09-12T18:43:43;3.85;;;2.33;;
25846;SDS011;13676;50.168;8.568;2022-09-12T18:46:16;3.83;;;2.45;;
25846;SDS011;13676;50.168;8.568;2022-09-12T18:48:42;4.07;;;2.47;;